Airfield :
LOGIN :

Register | Disclaimer

   EN    FR    IT 

 










Legend :    VFR   Marginal VFR   IFR   Intensive IFR   Very Intensive IFR
Visi :
Ceiling :
>= 8 km
>= 3000ft
5 to 8 km
1000 to 3000 ft
1500m to 5 km
500 to 1000 ft
800 to 1500m
200 to 500 ft
< 800m
< 200 ft
Symbols :   Thunderstorms  Fog  Heavy snow  Heavy precipitations  Wind > 20 kt
SIGMETs :     Misc.  Thunderstorms  Icing  Turbulence  Mountain Waves  Volcanic Ashes






- Airport Elevation : 14 ft
- IATA code : BRE


EDDW - Bremen Neuenland

CURRENT METAR :
  • 080220Z AUTO 35006KT 9999 BKN006 10/09 Q1019

EXPIRED METARs :
  • 080150Z AUTO 36007KT 9999 BKN006 10/09 Q1020
  • 080120Z AUTO 35006KT 310V010 9999 BKN006 10/09 Q1020
  • 080050Z AUTO 36005KT 340V040 9999 BKN006 10/09 Q1020
  • 080020Z AUTO 36007KT 9999 SCT007 11/09 Q1020
  • 072350Z AUTO 36007KT 9999 FEW008 11/09 Q1020
  • 072320Z AUTO 01008KT CAVOK 11/09 Q1020

TAF AMD TAF EDDW
Valid from the 08 at 00:00 until the 09 at 00:00 UTC


080039Z 0800/0824 35005KT 9999 BKN007
PROB30
TEMPO 0802/0805 3000 BR BKN003
BECMG 0805/0807 CAVOK
BECMG 0812/0815 36010KT
PROB30
TEMPO 0814/0818 SHRA SCT040CB
BECMG 0821/0824 01005KT



MET'MAP, your aeronautical weather chart ! - Copyright ORBIFLY December 2007 - Disclaimer

ORBIFLY MET'MAP TEAM :

Programming & Development : Alexandra Zaïnal
Original concept : Baudouin d'Aumeries
Technical & hardware support : Manuel Goepfert
Assistance : Marc-Olivier Méhu




SOURCES & CREDITS :

   NOAA